Time;durP1;ratioP1;P1;durP2;ratioP2;P2;SDS_P1;SDS_P2;PMS_P1;PMS_P2;Temp;Humidity;BMP_temperature;BMP_pressure;BME280_temperature;BME280_humidity;BME280_pressure;Samples;Min_cycle;Max_cycle;Signal;HPM_P1;HPM_P2
2023/12/06 00:02:37;;;;;;;65.47;38.33;;;22.90;34.00;;;;;;6158931;28;84288;-57
2023/12/06 00:05:39;;;;;;;65.25;39.15;;;22.90;33.90;;;;;;6160728;28;83971;-56
2023/12/06 00:08:40;;;;;;;66.28;40.38;;;22.90;34.00;;;;;;6157252;28;85135;-58
2023/12/06 00:11:41;;;;;;;68.22;41.72;;;22.90;34.10;;;;;;6160094;28;85194;-54
2023/12/06 00:14:41;;;;;;;65.43;39.83;;;22.90;34.20;;;;;;6154131;28;84230;-55
2023/12/06 00:17:42;;;;;;;62.80;39.67;;;22.80;34.20;;;;;;6152454;28;83264;-58
2023/12/06 00:20:42;;;;;;;62.17;39.85;;;22.80;34.30;;;;;;6157005;28;85714;-65
2023/12/06 00:23:43;;;;;;;68.53;40.75;;;22.80;34.30;;;;;;6155104;28;84323;-66
2023/12/06 00:26:43;;;;;;;68.88;41.33;;;22.70;34.30;;;;;;6157698;28;83880;-66
2023/12/06 00:29:44;;;;;;;64.07;39.70;;;22.80;34.90;;;;;;6156687;28;83558;-67
2023/12/06 00:32:44;;;;;;;65.80;39.28;;;22.70;34.20;;;;;;6150304;28;83886;-64
2023/12/06 00:35:45;;;;;;;67.30;40.28;;;22.70;34.30;;;;;;6148215;28;84774;-65
2023/12/06 00:38:45;;;;;;;67.03;40.83;;;22.80;34.20;;;;;;6160161;28;88068;-59
2023/12/06 00:41:46;;;;;;;64.00;39.58;;;22.80;34.10;;;;;;6160945;28;84538;-56
2023/12/06 00:44:47;;;;;;;67.50;40.92;;;22.70;34.10;;;;;;6145809;28;83937;-56
2023/12/06 00:47:47;;;;;;;63.15;40.25;;;22.80;34.10;;;;;;6147252;28;86448;-58
2023/12/06 00:50:48;;;;;;;64.20;38.67;;;22.80;34.30;;;;;;6154680;28;83764;-60
2023/12/06 00:53:48;;;;;;;65.70;40.03;;;22.70;34.40;;;;;;6151879;28;83693;-59
2023/12/06 00:56:49;;;;;;;67.68;40.35;;;22.70;34.20;;;;;;6160677;28;83755;-62
2023/12/06 00:59:49;;;;;;;70.05;41.78;;;22.80;34.30;;;;;;6159604;28;83791;-62
2023/12/06 01:02:50;;;;;;;63.22;39.75;;;22.80;34.00;;;;;;6156786;28;83081;-61
2023/12/06 01:05:50;;;;;;;70.82;41.60;;;22.80;34.00;;;;;;6155785;28;85272;-63
2023/12/06 01:08:51;;;;;;;72.53;43.05;;;22.80;33.90;;;;;;6146869;28;88420;-62
2023/12/06 01:11:51;;;;;;;62.10;38.67;;;22.80;34.00;;;;;;6157556;28;83953;-58
2023/12/06 01:14:52;;;;;;;68.78;40.35;;;22.80;34.20;;;;;;6148651;28;84296;-61
2023/12/06 01:17:52;;;;;;;65.40;39.25;;;22.80;34.20;;;;;;6152527;28;84630;-60
2023/12/06 01:20:53;;;;;;;63.08;38.50;;;22.80;34.10;;;;;;6155198;28;83913;-61
2023/12/06 01:23:53;;;;;;;66.65;37.58;;;22.80;34.30;;;;;;6159055;28;83103;-61
2023/12/06 01:26:54;;;;;;;55.30;32.38;;;22.80;34.40;;;;;;6158010;28;83962;-61
2023/12/06 01:29:54;;;;;;;63.45;37.90;;;22.70;35.00;;;;;;6155515;28;85614;-61
2023/12/06 01:32:55;;;;;;;67.10;41.10;;;22.70;34.80;;;;;;6164277;28;82879;-66
2023/12/06 01:35:55;;;;;;;68.50;39.65;;;22.70;34.30;;;;;;6164222;28;83758;-65
2023/12/06 01:38:56;;;;;;;66.30;41.42;;;22.70;34.20;;;;;;6164813;28;83435;-66
2023/12/06 01:41:57;;;;;;;67.30;41.08;;;22.70;34.30;;;;;;6171742;28;83418;-66
2023/12/06 01:44:57;;;;;;;64.53;40.53;;;22.70;34.30;;;;;;6172453;28;83285;-63
2023/12/06 01:47:57;;;;;;;65.78;41.08;;;22.80;34.50;;;;;;6171200;28;83172;-63
2023/12/06 01:50:58;;;;;;;61.33;38.03;;;22.70;35.00;;;;;;6171720;28;83480;-65
2023/12/06 01:53:59;;;;;;;67.70;41.28;;;22.70;34.40;;;;;;6172963;28;83496;-65
2023/12/06 01:56:59;;;;;;;65.88;40.47;;;22.70;34.50;;;;;;6172873;28;83222;-66
2023/12/06 02:00:00;;;;;;;67.47;39.70;;;22.70;34.50;;;;;;6165694;28;83506;-66
2023/12/06 02:03:01;;;;;;;59.80;38.10;;;22.70;34.60;;;;;;6169762;28;84793;-63
2023/12/06 02:06:01;;;;;;;55.97;33.97;;;22.70;34.80;;;;;;6172729;28;83079;-65
2023/12/06 02:09:02;;;;;;;56.30;35.40;;;22.70;35.50;;;;;;6173239;28;83598;-57
2023/12/06 02:12:02;;;;;;;56.75;35.05;;;22.70;35.50;;;;;;6172389;28;83092;-59
2023/12/06 02:15:03;;;;;;;52.42;32.78;;;22.60;35.70;;;;;;6167491;28;83510;-58
2023/12/06 02:18:03;;;;;;;55.88;33.20;;;22.60;36.10;;;;;;6171708;28;83133;-57
2023/12/06 02:21:04;;;;;;;55.75;33.65;;;22.60;36.00;;;;;;6171224;28;85360;-57
2023/12/06 02:24:04;;;;;;;54.08;33.67;;;22.60;36.30;;;;;;6172247;28;83300;-56
2023/12/06 02:27:05;;;;;;;59.15;35.53;;;22.60;36.10;;;;;;6160084;28;83098;-56
2023/12/06 02:30:05;;;;;;;54.08;34.75;;;22.60;35.90;;;;;;6166153;28;83610;-57
2023/12/06 02:33:06;;;;;;;62.22;38.55;;;22.60;35.60;;;;;;6167151;28;85837;-58
2023/12/06 02:36:06;;;;;;;54.13;34.45;;;22.60;35.20;;;;;;6172789;28;83470;-57
2023/12/06 02:39:07;;;;;;;59.25;35.47;;;22.60;35.80;;;;;;6172291;28;83147;-57
2023/12/06 02:42:08;;;;;;;56.58;34.15;;;22.60;35.80;;;;;;6171471;28;83324;-59
2023/12/06 02:45:08;;;;;;;56.53;34.83;;;22.60;35.70;;;;;;6168314;28;83466;-58
2023/12/06 02:48:09;;;;;;;59.85;36.90;;;22.60;35.30;;;;;;6160266;28;83992;-57
2023/12/06 02:51:09;;;;;;;59.22;36.25;;;22.60;35.00;;;;;;6170462;28;83768;-59
2023/12/06 02:54:10;;;;;;;58.30;35.67;;;22.60;35.10;;;;;;6170872;28;82932;-59
2023/12/06 02:57:10;;;;;;;55.33;35.03;;;22.60;34.90;;;;;;6172347;28;84464;-58
2023/12/06 03:00:11;;;;;;;56.78;35.10;;;22.60;34.90;;;;;;6168250;28;85703;-59
2023/12/06 03:03:11;;;;;;;57.70;35.90;;;22.60;34.90;;;;;;6170831;28;83002;-58
2023/12/06 03:06:12;;;;;;;57.08;33.20;;;22.60;34.80;;;;;;6172556;28;83718;-57
2023/12/06 03:09:12;;;;;;;54.67;34.58;;;22.60;34.70;;;;;;6172557;28;83403;-58
2023/12/06 03:12:13;;;;;;;56.70;35.55;;;22.70;34.80;;;;;;6168654;28;83422;-59
2023/12/06 03:15:13;;;;;;;56.80;32.95;;;22.70;34.60;;;;;;6166433;28;84001;-58
2023/12/06 03:18:14;;;;;;;54.45;33.88;;;22.60;34.70;;;;;;6168530;28;83084;-58
2023/12/06 03:21:14;;;;;;;58.15;35.25;;;22.60;34.70;;;;;;6168876;28;84186;-58
2023/12/06 03:24:15;;;;;;;60.30;34.97;;;22.60;34.50;;;;;;6167910;28;82933;-63
2023/12/06 03:27:15;;;;;;;57.10;34.28;;;22.50;34.60;;;;;;6170279;28;83318;-62
2023/12/06 03:30:16;;;;;;;58.45;34.72;;;22.60;34.80;;;;;;6161027;28;83682;-62
2023/12/06 03:33:16;;;;;;;61.92;35.95;;;22.50;34.80;;;;;;6171392;28;83082;-63
2023/12/06 03:36:17;;;;;;;55.65;33.53;;;22.50;34.80;;;;;;6175129;28;85596;-62
2023/12/06 03:39:17;;;;;;;54.42;33.47;;;22.60;35.60;;;;;;6175885;28;84695;-65
2023/12/06 03:42:18;;;;;;;59.72;36.58;;;22.60;35.20;;;;;;6166574;28;83091;-64
2023/12/06 03:45:18;;;;;;;58.17;36.13;;;22.50;34.90;;;;;;6168922;28;84414;-65
2023/12/06 03:48:19;;;;;;;58.53;36.17;;;22.60;34.80;;;;;;6174801;28;83427;-64
2023/12/06 03:51:20;;;;;;;56.47;34.63;;;22.60;34.80;;;;;;6175804;28;83444;-63
2023/12/06 03:54:20;;;;;;;59.65;35.95;;;22.50;34.70;;;;;;6173938;28;84355;-63
2023/12/06 03:57:20;;;;;;;61.72;36.90;;;22.50;34.70;;;;;;6174462;28;83263;-60
2023/12/06 04:00:21;;;;;;;54.97;34.70;;;22.60;34.70;;;;;;6165421;28;83331;-59
2023/12/06 04:03:21;;;;;;;61.25;37.58;;;22.50;34.70;;;;;;6173097;28;86076;-58
2023/12/06 04:06:22;;;;;;;62.65;37.95;;;22.50;34.70;;;;;;6164779;28;83392;-57
2023/12/06 04:09:22;;;;;;;56.65;36.15;;;22.50;34.60;;;;;;6170441;28;83073;-55
2023/12/06 04:12:23;;;;;;;61.17;38.10;;;22.50;34.40;;;;;;6172847;28;83503;-57
2023/12/06 04:15:23;;;;;;;65.97;39.83;;;22.60;34.20;;;;;;6172131;28;84273;-56
2023/12/06 04:18:24;;;;;;;65.50;37.83;;;22.60;34.10;;;;;;6173782;28;83238;-63
2023/12/06 04:21:24;;;;;;;59.50;37.15;;;22.60;35.00;;;;;;6172087;28;83018;-63
2023/12/06 04:24:25;;;;;;;62.67;37.08;;;22.60;33.80;;;;;;6174614;28;83212;-66
2023/12/06 04:27:25;;;;;;;64.25;39.60;;;22.70;33.50;;;;;;6169855;28;83023;-63
2023/12/06 04:30:26;;;;;;;58.88;36.97;;;22.70;33.40;;;;;;6166705;28;82944;-62
2023/12/06 04:33:26;;;;;;;62.88;39.38;;;22.80;33.40;;;;;;6174143;28;83573;-66
2023/12/06 04:36:27;;;;;;;59.63;36.10;;;22.90;33.20;;;;;;6175171;28;83379;-67
2023/12/06 04:39:27;;;;;;;59.85;37.00;;;22.90;33.10;;;;;;6174158;28;83140;-63
2023/12/06 04:42:28;;;;;;;62.13;36.47;;;22.90;32.90;;;;;;6171899;28;84299;-60
2023/12/06 04:45:28;;;;;;;58.88;36.67;;;22.90;32.70;;;;;;6175375;28;84030;-63
2023/12/06 04:48:29;;;;;;;61.40;36.70;;;23.00;32.70;;;;;;6175406;28;82792;-67
2023/12/06 04:51:29;;;;;;;58.17;36.22;;;23.00;32.50;;;;;;6173876;28;83306;-60
2023/12/06 04:54:30;;;;;;;56.15;35.92;;;23.00;32.40;;;;;;6173677;28;86387;-66
2023/12/06 04:57:30;;;;;;;59.50;36.63;;;23.10;32.20;;;;;;6171860;28;83252;-62
2023/12/06 05:00:31;;;;;;;60.83;37.03;;;23.10;32.50;;;;;;6173880;28;83607;-61
2023/12/06 05:03:31;;;;;;;55.15;33.72;;;23.10;32.40;;;;;;6162813;28;84774;-62
2023/12/06 05:06:32;;;;;;;56.70;35.20;;;23.10;32.70;;;;;;6171185;28;83349;-61
2023/12/06 05:09:32;;;;;;;51.83;32.75;;;23.20;33.00;;;;;;6171800;28;83175;-60
2023/12/06 05:12:33;;;;;;;56.67;35.15;;;23.20;33.50;;;;;;6167284;28;83169;-65
2023/12/06 05:15:33;;;;;;;54.78;33.22;;;23.20;33.30;;;;;;6172278;28;86224;-66
2023/12/06 05:18:34;;;;;;;53.10;33.28;;;23.20;33.60;;;;;;6171309;28;83550;-64
2023/12/06 05:21:34;;;;;;;48.65;31.38;;;23.20;34.10;;;;;;6168485;28;83356;-63
2023/12/06 05:24:35;;;;;;;52.90;30.45;;;23.20;34.50;;;;;;6167357;28;83688;-66
2023/12/06 05:27:35;;;;;;;46.38;29.85;;;23.30;34.90;;;;;;6166844;28;83138;-66
2023/12/06 05:30:36;;;;;;;48.35;28.25;;;23.30;35.10;;;;;;6170304;28;84120;-66
2023/12/06 05:33:37;;;;;;;48.78;29.33;;;23.40;35.80;;;;;;6154886;28;84610;-62
2023/12/06 05:36:38;;;;;;;49.88;29.77;;;23.30;35.60;;;;;;6165071;28;84294;-61
2023/12/06 05:39:38;;;;;;;48.47;28.80;;;23.30;35.50;;;;;;6145868;28;84502;-56
2023/12/06 05:42:39;;;;;;;51.38;29.00;;;23.40;35.20;;;;;;6144482;28;85463;-59
2023/12/06 05:45:39;;;;;;;48.15;28.38;;;23.40;35.80;;;;;;6166639;28;83800;-59
2023/12/06 05:48:40;;;;;;;46.88;28.45;;;23.40;36.80;;;;;;6154309;28;83377;-61
2023/12/06 05:51:40;;;;;;;53.47;30.13;;;23.40;35.80;;;;;;6167663;28;85899;-62
2023/12/06 05:54:41;;;;;;;54.30;27.58;;;23.40;35.40;;;;;;6169888;28;83517;-59
2023/12/06 05:57:41;;;;;;;47.75;27.48;;;23.30;35.10;;;;;;6157690;28;84831;-62
2023/12/06 06:00:42;;;;;;;49.22;29.80;;;23.30;34.90;;;;;;6168352;28;86627;-60
2023/12/06 06:03:42;;;;;;;41.90;26.92;;;23.30;35.20;;;;;;6167088;28;83319;-60
2023/12/06 06:06:43;;;;;;;47.90;28.15;;;23.30;35.00;;;;;;6162388;28;83306;-60
2023/12/06 06:09:43;;;;;;;46.67;27.30;;;23.30;34.90;;;;;;6167489;28;83315;-60
2023/12/06 06:12:44;;;;;;;41.20;26.55;;;23.20;34.90;;;;;;6153709;28;84417;-59
2023/12/06 06:15:44;;;;;;;48.55;28.13;;;23.10;34.80;;;;;;6162713;28;84016;-59
2023/12/06 06:18:45;;;;;;;42.00;26.67;;;23.10;34.80;;;;;;6171023;28;83221;-59
2023/12/06 06:21:45;;;;;;;44.67;27.08;;;23.10;34.60;;;;;;6166337;28;83020;-58
2023/12/06 06:24:46;;;;;;;48.08;28.50;;;23.00;34.80;;;;;;6154838;28;91586;-61
2023/12/06 06:27:46;;;;;;;48.92;28.90;;;23.00;34.70;;;;;;6162499;28;85777;-61
2023/12/06 06:30:47;;;;;;;42.53;27.48;;;22.90;34.50;;;;;;6165586;28;84210;-61
2023/12/06 06:33:47;;;;;;;44.80;28.90;;;22.90;34.40;;;;;;6172709;28;83598;-61
2023/12/06 06:36:48;;;;;;;49.28;29.40;;;22.90;34.30;;;;;;6165814;28;83277;-62
2023/12/06 06:39:48;;;;;;;48.25;30.02;;;22.80;34.10;;;;;;6170108;28;83686;-61
2023/12/06 06:42:50;;;;;;;51.05;31.27;;;22.80;34.00;;;;;;6172125;28;83292;-62
2023/12/06 06:45:51;;;;;;;47.28;29.48;;;22.80;33.80;;;;;;6172435;28;84042;-60
2023/12/06 06:48:52;;;;;;;49.95;32.50;;;22.70;33.70;;;;;;6172521;28;83271;-64
2023/12/06 06:51:52;;;;;;;56.05;33.70;;;22.70;33.30;;;;;;6170660;28;83516;-62
2023/12/06 06:54:53;;;;;;;59.33;34.70;;;22.70;33.40;;;;;;6165513;28;83352;-63
2023/12/06 06:57:53;;;;;;;57.80;34.13;;;22.60;33.00;;;;;;6167474;28;83599;-61
2023/12/06 07:00:54;;;;;;;55.67;33.03;;;22.60;33.10;;;;;;6170341;28;83260;-60
2023/12/06 07:03:55;;;;;;;58.97;35.03;;;22.60;33.20;;;;;;6171072;28;84343;-61
2023/12/06 07:06:55;;;;;;;55.03;34.42;;;22.60;33.30;;;;;;6170301;28;85970;-60
2023/12/06 07:09:55;;;;;;;51.92;32.45;;;22.60;33.30;;;;;;6161029;28;83326;-61
2023/12/06 07:12:56;;;;;;;57.65;34.55;;;22.50;33.20;;;;;;6170372;28;83162;-60
2023/12/06 07:15:57;;;;;;;59.10;36.35;;;22.50;33.00;;;;;;6169457;28;86469;-61
2023/12/06 07:18:58;;;;;;;54.60;34.25;;;22.50;32.90;;;;;;6167645;28;84249;-61
2023/12/06 07:21:58;;;;;;;51.90;33.38;;;22.50;32.80;;;;;;6169700;28;83388;-60
2023/12/06 07:24:59;;;;;;;57.95;34.92;;;22.40;32.70;;;;;;6153109;28;86204;-60
2023/12/06 07:28:02;;;;;;;52.75;34.67;;;22.50;32.70;;;;;;6160786;28;83186;-59
2023/12/06 07:31:03;;;;;;;55.80;33.70;;;22.40;32.60;;;;;;6163550;28;83077;-61
2023/12/06 07:34:03;;;;;;;50.95;32.75;;;22.40;32.70;;;;;;6167272;28;83243;-59
2023/12/06 07:37:04;;;;;;;51.70;32.85;;;22.40;32.70;;;;;;6173310;28;83729;-59
2023/12/06 07:40:07;;;;;;;52.15;32.65;;;22.40;32.90;;;;;;6160412;28;86531;-62
2023/12/06 07:43:07;;;;;;;51.75;31.23;;;22.40;32.90;;;;;;6167037;28;83600;-60
2023/12/06 07:46:08;;;;;;;52.47;30.75;;;22.40;32.90;;;;;;6170588;28;83662;-62
2023/12/06 07:49:09;;;;;;;51.22;30.83;;;22.40;33.00;;;;;;6170455;28;84437;-62
2023/12/06 07:52:09;;;;;;;45.92;28.08;;;22.40;33.50;;;;;;6170935;28;83181;-61
2023/12/06 07:55:10;;;;;;;43.63;25.85;;;22.40;34.40;;;;;;6172063;28;83186;-62
2023/12/06 07:58:10;;;;;;;43.53;26.95;;;22.40;34.30;;;;;;6170702;28;83364;-60
2023/12/06 08:01:11;;;;;;;44.25;26.27;;;22.40;34.70;;;;;;6160819;28;83585;-59
2023/12/06 08:04:12;;;;;;;38.70;24.67;;;22.40;34.60;;;;;;6172494;28;85136;-60
2023/12/06 08:07:12;;;;;;;36.75;23.75;;;22.40;35.80;;;;;;6170670;28;83846;-61
2023/12/06 08:10:19;;;;;;;38.83;24.80;;;22.40;35.30;;;;;;6166512;28;86131;-63
2023/12/06 08:13:20;;;;;;;38.00;24.00;;;22.40;35.00;;;;;;6157330;28;83483;-60
2023/12/06 08:16:20;;;;;;;43.67;26.73;;;22.40;35.20;;;;;;6167366;28;82794;-63
2023/12/06 08:19:20;;;;;;;36.25;23.40;;;22.40;34.50;;;;;;6171283;28;85008;-61
2023/12/06 08:22:21;;;;;;;40.45;24.65;;;22.40;34.90;;;;;;6162186;28;84476;-61
2023/12/06 08:25:21;;;;;;;42.53;27.67;;;22.40;34.50;;;;;;6150668;28;86396;-61
2023/12/06 08:28:22;;;;;;;46.95;27.90;;;22.50;33.80;;;;;;6153828;28;84570;-60
2023/12/06 08:31:22;;;;;;;40.67;25.70;;;22.60;33.90;;;;;;6156973;28;86765;-61
2023/12/06 08:34:23;;;;;;;42.45;27.65;;;22.60;34.10;;;;;;6169117;28;82970;-61
2023/12/06 08:37:24;;;;;;;41.40;26.92;;;22.60;33.60;;;;;;6172414;28;83576;-61
2023/12/06 08:40:26;;;;;;;45.60;27.67;;;22.60;33.10;;;;;;6175395;28;83204;-62
2023/12/06 08:43:27;;;;;;;42.55;27.67;;;22.70;33.20;;;;;;6167818;28;83117;-62
2023/12/06 08:46:27;;;;;;;43.72;27.67;;;22.70;33.00;;;;;;6175215;28;83616;-63
2023/12/06 08:49:28;;;;;;;45.42;27.60;;;22.80;33.00;;;;;;6169356;28;83265;-62
2023/12/06 08:52:29;;;;;;;42.45;27.25;;;22.90;32.70;;;;;;6174817;28;83551;-61
2023/12/06 08:55:29;;;;;;;43.97;28.77;;;22.90;32.90;;;;;;6172740;28;83530;-59
2023/12/06 08:58:30;;;;;;;42.47;27.88;;;22.90;32.80;;;;;;6173832;28;83398;-59
2023/12/06 09:01:30;;;;;;;47.38;29.52;;;23.00;32.80;;;;;;6172690;28;83498;-60
2023/12/06 09:04:31;;;;;;;45.75;29.25;;;23.00;32.60;;;;;;6173302;28;82860;-60
2023/12/06 09:07:31;;;;;;;42.92;27.45;;;23.00;32.70;;;;;;6171988;28;84778;-60
2023/12/06 09:10:32;;;;;;;47.15;28.02;;;23.00;32.70;;;;;;6172808;28;83066;-62
2023/12/06 09:13:32;;;;;;;46.60;27.90;;;23.10;32.50;;;;;;6173055;28;84084;-59
2023/12/06 09:16:33;;;;;;;44.53;28.45;;;23.10;32.60;;;;;;6170107;28;83809;-59
2023/12/06 09:19:33;;;;;;;45.03;28.33;;;23.10;32.60;;;;;;6171857;28;84539;-59
2023/12/06 09:22:33;;;;;;;42.92;28.20;;;23.10;32.70;;;;;;6170405;28;83485;-59
2023/12/06 09:25:34;;;;;;;45.85;28.48;;;23.10;32.50;;;;;;6171870;28;84819;-58
2023/12/06 09:28:35;;;;;;;44.03;28.10;;;23.10;32.70;;;;;;6172882;28;83022;-59
2023/12/06 09:31:35;;;;;;;45.83;29.08;;;23.10;32.60;;;;;;6164581;28;84006;-61
2023/12/06 09:34:36;;;;;;;39.85;26.33;;;23.10;32.70;;;;;;6172277;28;83607;-60
2023/12/06 09:37:36;;;;;;;42.67;28.10;;;23.10;32.70;;;;;;6172693;28;84029;-60
2023/12/06 09:40:37;;;;;;;42.35;27.55;;;23.10;32.60;;;;;;6172912;28;84648;-61
2023/12/06 09:43:37;;;;;;;42.42;27.05;;;23.10;33.00;;;;;;6166339;28;83233;-60
2023/12/06 09:46:38;;;;;;;41.78;25.92;;;23.10;33.20;;;;;;6167152;28;86114;-61
2023/12/06 09:49:38;;;;;;;38.33;25.50;;;23.10;33.40;;;;;;6170031;28;83443;-61
2023/12/06 09:52:39;;;;;;;42.90;26.27;;;23.00;33.40;;;;;;6173456;28;82733;-59
2023/12/06 09:55:39;;;;;;;40.17;26.98;;;23.00;33.30;;;;;;6173541;28;84201;-60
2023/12/06 09:58:40;;;;;;;42.13;27.67;;;23.00;33.20;;;;;;6173821;28;83640;-62
2023/12/06 10:01:40;;;;;;;41.95;27.73;;;23.00;33.00;;;;;;6172731;28;83540;-59
2023/12/06 10:04:41;;;;;;;45.58;27.17;;;23.00;33.10;;;;;;6172981;28;83084;-60
2023/12/06 10:07:41;;;;;;;41.22;26.52;;;23.00;33.10;;;;;;6170708;28;84994;-61
2023/12/06 10:10:42;;;;;;;47.90;30.48;;;22.90;33.20;;;;;;6170665;28;83860;-60
2023/12/06 10:13:42;;;;;;;48.95;31.52;;;22.90;33.10;;;;;;6172372;28;83914;-60
2023/12/06 10:16:43;;;;;;;47.15;29.25;;;22.90;33.00;;;;;;6165309;28;83595;-60
2023/12/06 10:19:43;;;;;;;46.85;28.83;;;22.90;32.80;;;;;;6169929;28;83562;-60
2023/12/06 10:22:44;;;;;;;47.17;29.05;;;22.90;33.00;;;;;;6171067;28;84009;-60
2023/12/06 10:25:47;;;;;;;43.90;29.58;;;22.80;32.80;;;;;;6148250;28;86923;-62
2023/12/06 10:28:48;;;;;;;47.83;30.35;;;22.80;32.80;;;;;;6152659;28;85346;-62
2023/12/06 10:31:48;;;;;;;49.08;31.38;;;22.80;32.70;;;;;;6169055;28;83479;-62
2023/12/06 10:34:49;;;;;;;49.00;32.05;;;22.80;32.80;;;;;;6168639;28;83411;-61
2023/12/06 10:37:49;;;;;;;45.55;28.42;;;22.80;32.70;;;;;;6171651;28;83645;-62
2023/12/06 10:40:50;;;;;;;55.40;33.13;;;22.80;33.30;;;;;;6159272;28;83812;-62
2023/12/06 10:43:50;;;;;;;49.47;31.65;;;22.70;32.80;;;;;;6166599;28;87896;-60
2023/12/06 10:46:51;;;;;;;53.13;33.63;;;22.70;32.50;;;;;;6169601;28;83580;-60
2023/12/06 10:49:51;;;;;;;50.17;32.15;;;22.70;32.70;;;;;;6156576;28;83436;-61
2023/12/06 10:52:51;;;;;;;56.67;34.55;;;22.70;32.80;;;;;;6169864;28;83854;-61
2023/12/06 10:55:52;;;;;;;53.90;33.35;;;22.70;32.40;;;;;;6167295;28;83641;-60
2023/12/06 10:58:52;;;;;;;53.25;35.15;;;22.70;32.40;;;;;;6158706;28;85395;-59
2023/12/06 11:01:53;;;;;;;55.75;35.95;;;22.70;32.50;;;;;;6165617;28;83034;-60
2023/12/06 11:04:53;;;;;;;55.75;36.35;;;22.60;32.10;;;;;;6165816;28;85253;-60
2023/12/06 11:07:54;;;;;;;57.72;37.13;;;22.60;32.00;;;;;;6169849;28;83805;-60
2023/12/06 11:10:54;;;;;;;55.35;35.80;;;22.60;32.10;;;;;;6170892;28;83045;-59
2023/12/06 11:13:55;;;;;;;53.20;36.10;;;22.60;32.10;;;;;;6168785;28;83467;-60
2023/12/06 11:16:56;;;;;;;55.63;34.33;;;22.50;32.00;;;;;;6168415;28;86070;-60
2023/12/06 11:19:57;;;;;;;53.22;34.65;;;22.50;32.00;;;;;;6168963;28;84027;-60
2023/12/06 11:22:58;;;;;;;48.50;32.65;;;22.50;32.20;;;;;;6167940;28;90153;-60
2023/12/06 11:25:58;;;;;;;52.70;33.05;;;22.50;32.20;;;;;;6171114;28;83344;-60
2023/12/06 11:28:59;;;;;;;42.17;28.35;;;22.50;32.50;;;;;;6170905;28;83391;-60
2023/12/06 11:32:00;;;;;;;49.30;31.80;;;22.50;33.20;;;;;;6164856;28;83658;-60
2023/12/06 11:35:01;;;;;;;49.20;31.38;;;22.50;32.60;;;;;;6166201;28;82953;-60
2023/12/06 11:38:03;;;;;;;52.28;32.42;;;22.60;33.20;;;;;;6162745;28;86040;-60
2023/12/06 11:41:06;;;;;;;46.03;30.38;;;22.60;32.80;;;;;;6170007;28;83301;-61
2023/12/06 11:44:07;;;;;;;44.75;28.85;;;22.60;32.60;;;;;;6160529;28;94281;-61
2023/12/06 11:47:07;;;;;;;42.83;28.05;;;22.70;32.70;;;;;;6169667;28;83477;-61
2023/12/06 11:50:08;;;;;;;40.92;28.63;;;22.70;32.60;;;;;;6167382;28;83283;-62
2023/12/06 11:53:08;;;;;;;42.55;27.25;;;22.80;32.80;;;;;;6160530;28;88162;-62
2023/12/06 11:56:09;;;;;;;39.53;25.88;;;22.80;32.40;;;;;;6173978;28;83596;-62
2023/12/06 11:59:10;;;;;;;42.85;26.50;;;22.80;33.00;;;;;;6173676;28;84267;-58
2023/12/06 12:02:11;;;;;;;41.95;27.92;;;22.90;32.50;;;;;;6174051;28;83487;-59
2023/12/06 12:05:12;;;;;;;46.92;28.88;;;22.90;32.80;;;;;;6167303;28;83303;-60
2023/12/06 12:08:12;;;;;;;42.85;29.08;;;23.00;32.70;;;;;;6148993;28;84646;-59
2023/12/06 12:11:13;;;;;;;41.05;28.45;;;23.00;32.60;;;;;;6123871;28;84058;-58
2023/12/06 12:14:13;;;;;;;41.63;27.88;;;23.00;32.60;;;;;;6143683;28;85585;-58
2023/12/06 12:17:13;;;;;;;42.95;27.77;;;23.10;32.80;;;;;;6166707;28;83704;-59
2023/12/06 12:20:14;;;;;;;42.58;28.02;;;23.10;32.70;;;;;;6162723;28;83635;-61
2023/12/06 12:23:14;;;;;;;43.20;28.27;;;23.10;32.70;;;;;;6164115;28;85449;-60
2023/12/06 12:26:15;;;;;;;42.03;27.38;;;23.10;32.90;;;;;;6171874;28;83262;-59
2023/12/06 12:29:16;;;;;;;44.97;28.58;;;23.10;32.70;;;;;;6172520;28;83103;-59
2023/12/06 12:32:16;;;;;;;40.92;27.92;;;23.20;33.00;;;;;;6174237;28;84544;-58
2023/12/06 12:35:17;;;;;;;41.42;27.88;;;23.20;32.90;;;;;;6174314;28;83227;-59
2023/12/06 12:38:17;;;;;;;43.67;28.00;;;23.20;33.10;;;;;;6169560;28;83641;-59
2023/12/06 12:41:18;;;;;;;43.72;27.42;;;23.20;32.80;;;;;;6168835;28;87672;-59
2023/12/06 12:44:18;;;;;;;40.65;25.98;;;23.20;32.90;;;;;;6159228;28;85569;-59
2023/12/06 12:47:20;;;;;;;42.55;27.27;;;23.20;33.30;;;;;;6169923;28;84078;-58
2023/12/06 12:50:20;;;;;;;43.47;26.45;;;23.10;33.00;;;;;;6173334;28;82963;-58
2023/12/06 12:53:21;;;;;;;39.05;27.98;;;23.20;33.10;;;;;;6175040;28;83065;-59
2023/12/06 12:56:21;;;;;;;41.28;27.20;;;23.20;32.90;;;;;;6173271;28;82961;-58
2023/12/06 12:59:22;;;;;;;39.15;26.80;;;23.10;33.00;;;;;;6172803;28;83978;-59
2023/12/06 13:02:23;;;;;;;40.13;26.45;;;23.10;33.00;;;;;;6172003;28;84103;-59
2023/12/06 13:05:23;;;;;;;44.90;26.83;;;23.10;33.30;;;;;;6174155;28;86033;-58
2023/12/06 13:08:24;;;;;;;36.10;25.08;;;23.10;33.20;;;;;;6170634;28;83282;-59
2023/12/06 13:11:24;;;;;;;40.90;25.60;;;23.10;33.50;;;;;;6169965;28;82961;-59
2023/12/06 13:14:25;;;;;;;42.10;26.70;;;23.10;33.50;;;;;;6167205;28;83371;-59
2023/12/06 13:17:27;;;;;;;43.85;25.17;;;23.00;33.10;;;;;;6162856;28;83339;-60
2023/12/06 13:20:27;;;;;;;48.58;26.95;;;23.00;33.40;;;;;;6172675;28;84713;-60
2023/12/06 13:23:28;;;;;;;40.15;23.88;;;23.00;33.30;;;;;;6173715;28;84440;-60
2023/12/06 13:26:28;;;;;;;37.47;24.67;;;23.00;33.40;;;;;;6167959;28;83678;-60
2023/12/06 13:29:29;;;;;;;36.88;25.02;;;23.00;33.60;;;;;;6171136;28;83788;-61
2023/12/06 13:32:29;;;;;;;43.55;24.48;;;23.00;33.80;;;;;;6167344;28;83557;-60
2023/12/06 13:35:30;;;;;;;40.25;24.80;;;23.00;33.60;;;;;;6173641;28;83631;-61
2023/12/06 13:38:31;;;;;;;39.67;25.63;;;22.90;33.30;;;;;;6172067;28;83852;-61
2023/12/06 13:41:32;;;;;;;39.38;26.25;;;22.90;33.00;;;;;;6170322;28;84425;-62
2023/12/06 13:44:32;;;;;;;39.50;26.20;;;22.80;32.70;;;;;;6167226;28;84749;-61
2023/12/06 13:47:33;;;;;;;40.63;27.08;;;22.80;32.50;;;;;;6170448;28;83781;-54
2023/12/06 13:50:34;;;;;;;40.65;26.10;;;22.70;32.50;;;;;;6171821;28;83522;-59
2023/12/06 13:53:34;;;;;;;45.08;28.50;;;22.70;33.20;;;;;;6170884;28;84907;-58
2023/12/06 13:56:36;;;;;;;38.88;25.73;;;22.70;32.30;;;;;;6171292;28;83913;-58
2023/12/06 13:59:38;;;;;;;42.10;29.30;;;22.70;32.60;;;;;;6173015;28;84744;-59
2023/12/06 14:02:39;;;;;;;40.78;27.40;;;22.70;32.40;;;;;;6172846;28;83885;-61
2023/12/06 14:05:39;;;;;;;44.33;28.58;;;22.70;32.30;;;;;;6173202;28;83583;-59
2023/12/06 14:08:40;;;;;;;42.92;28.70;;;22.60;32.30;;;;;;6169719;28;85799;-59
2023/12/06 14:11:40;;;;;;;46.78;29.77;;;22.60;32.30;;;;;;6162567;28;83142;-59
2023/12/06 14:14:41;;;;;;;46.67;29.67;;;22.60;32.10;;;;;;6158922;28;85399;-60
2023/12/06 14:17:41;;;;;;;46.60;30.92;;;22.60;32.10;;;;;;6171054;28;85020;-59
2023/12/06 14:20:43;;;;;;;42.53;28.25;;;22.50;32.00;;;;;;6172944;28;83631;-57
2023/12/06 14:23:43;;;;;;;49.65;30.55;;;22.50;31.80;;;;;;6169890;28;83596;-60
2023/12/06 14:26:44;;;;;;;41.65;27.48;;;22.50;32.60;;;;;;6166443;28;83086;-61
2023/12/06 14:29:44;;;;;;;41.97;27.00;;;22.50;32.90;;;;;;6167239;28;83356;-60
2023/12/06 14:32:45;;;;;;;38.63;26.40;;;22.50;33.00;;;;;;6170256;28;83385;-59
2023/12/06 14:35:45;;;;;;;39.42;27.08;;;22.50;32.90;;;;;;6171918;28;83609;-60
2023/12/06 14:38:46;;;;;;;40.45;25.10;;;22.50;32.90;;;;;;6173207;28;83328;-59
2023/12/06 14:41:47;;;;;;;40.65;25.02;;;22.50;33.40;;;;;;6156724;28;85805;-60
2023/12/06 14:44:48;;;;;;;44.58;27.52;;;22.50;33.90;;;;;;6166047;28;82909;-60
2023/12/06 14:47:49;;;;;;;39.92;24.40;;;22.50;33.20;;;;;;6170744;28;84410;-62
2023/12/06 14:50:49;;;;;;;38.45;26.02;;;22.60;33.80;;;;;;6170111;28;83266;-60
2023/12/06 14:53:50;;;;;;;37.67;25.48;;;22.60;33.70;;;;;;6169654;28;83755;-59
2023/12/06 14:56:53;;;;;;;41.88;26.60;;;22.60;33.50;;;;;;6171253;28;83914;-60
2023/12/06 14:59:54;;;;;;;39.97;25.98;;;22.70;33.30;;;;;;6171204;28;83574;-58
2023/12/06 15:02:54;;;;;;;39.50;26.05;;;22.70;33.10;;;;;;6169809;28;82897;-58
2023/12/06 15:05:56;;;;;;;46.67;28.75;;;22.80;33.20;;;;;;6170934;28;86644;-58
2023/12/06 15:08:57;;;;;;;41.67;26.48;;;22.80;33.20;;;;;;6169479;28;83352;-60
2023/12/06 15:11:57;;;;;;;41.05;26.25;;;22.80;33.00;;;;;;6170315;28;84452;-60
2023/12/06 15:14:58;;;;;;;37.85;24.05;;;22.90;33.30;;;;;;6171577;28;84148;-57
2023/12/06 15:17:59;;;;;;;40.63;25.10;;;22.90;32.80;;;;;;6165690;28;83179;-59